Time;durP1;ratioP1;P1;durP2;ratioP2;P2;SDS_P1;SDS_P2;PMS_P1;PMS_P2;Temp;Humidity;BMP_temperature;BMP_pressure;BME280_temperature;BME280_humidity;BME280_pressure;Samples;Min_cycle;Max_cycle;Signal;HPM_P1;HPM_P2
2023/05/17 00:00:53;;;;;;;;;26.00;23.33;;;;;14.77;100.00;98786.53;6317684;20;3583594;-62
2023/05/17 00:03:21;;;;;;;;;25.33;23.00;;;;;14.83;100.00;98783.28;6287107;20;3570245;-61
2023/05/17 00:05:49;;;;;;;;;24.00;21.00;;;;;14.80;100.00;98791.66;6282776;20;2835874;-61
2023/05/17 00:08:18;;;;;;;;;26.00;25.00;;;;;14.79;100.00;98787.25;6289512;20;3577445;-62
2023/05/17 00:10:47;;;;;;;;;23.33;21.67;;;;;14.91;100.00;98791.50;6281376;20;2837773;-62
2023/05/17 00:13:15;;;;;;;;;28.67;25.67;;;;;14.79;100.00;98790.78;6319688;20;3600263;-61
2023/05/17 00:15:43;;;;;;;;;24.00;20.50;;;;;14.80;100.00;98788.97;6283114;20;2836891;-61
2023/05/17 00:18:11;;;;;;;;;22.50;22.50;;;;;14.84;100.00;98782.25;6284542;20;2819110;-61
2023/05/17 00:20:40;;;;;;;;;25.00;22.50;;;;;14.84;100.00;98768.75;6283004;20;2845197;-62
2023/05/17 00:23:08;;;;;;;;;30.33;24.67;;;;;14.87;100.00;98780.13;6284477;20;3596094;-61
2023/05/17 00:25:37;;;;;;;;;24.67;23.67;;;;;14.85;100.00;98781.25;6282339;20;2853547;-61
2023/05/17 00:28:05;;;;;;;;;25.67;25.67;;;;;14.86;100.00;98774.88;6315577;20;3576319;-61
2023/05/17 00:30:34;;;;;;;;;27.00;24.00;;;;;14.98;100.00;98786.38;6281547;20;3586109;-61
2023/05/17 00:33:03;;;;;;;;;22.33;20.33;;;;;14.86;100.00;98791.94;6313953;20;3572281;-61
2023/05/17 00:35:32;;;;;;;;;27.67;25.67;;;;;14.84;100.00;98785.81;6281111;20;3591902;-61
2023/05/17 00:38:00;;;;;;;;;30.00;26.00;;;;;14.83;100.00;98789.53;6316058;20;3569059;-61
2023/05/17 00:40:29;;;;;;;;;25.00;24.00;;;;;14.77;100.00;98786.53;6279137;20;3580478;-61
2023/05/17 00:42:57;;;;;;;;;25.00;23.67;;;;;14.76;100.00;98792.94;6318190;20;3564902;-62
2023/05/17 00:45:26;;;;;;;;;30.00;24.00;;;;;14.70;100.00;98787.09;6277643;20;2860826;-62
2023/05/17 00:47:55;;;;;;;;;26.00;23.33;;;;;14.68;100.00;98783.69;6315033;20;3583589;-62
2023/05/17 00:50:24;;;;;;;;;30.00;23.33;;;;;14.75;100.00;98781.28;6283592;20;2847208;-61
2023/05/17 00:52:54;;;;;;;;;22.33;21.67;;;;;14.80;100.00;98788.97;6316882;20;3574238;-61
2023/05/17 00:55:22;;;;;;;;;20.33;20.33;;;;;14.75;100.00;98781.28;6285586;20;3566977;-61
2023/05/17 00:57:50;;;;;;;;;31.33;28.00;;;;;14.81;100.00;98779.84;6281885;20;3586755;-61
2023/05/17 01:00:19;;;;;;;;;29.00;27.00;;;;;14.77;100.00;98783.81;6279499;20;2845165;-60
2023/05/17 01:02:48;;;;;;;;;34.33;29.33;;;;;14.93;100.00;98801.19;6281118;20;3605659;-60
2023/05/17 01:05:17;;;;;;;;;33.67;26.33;;;;;15.02;100.00;98794.03;6309540;20;3601401;-61
2023/05/17 01:07:45;;;;;;;;;34.67;27.67;;;;;14.89;100.00;98791.63;6286727;20;3623192;-60
2023/05/17 01:10:13;;;;;;;;;31.33;26.33;;;;;14.85;100.00;98797.47;6283617;20;3581566;-60
2023/05/17 01:13:09;;;;;;;;;29.00;24.00;;;;;14.82;100.00;98803.16;6283241;20;3601421;-61
2023/05/17 01:15:46;;;;;;;;;30.00;25.33;;;;;14.70;100.00;98800.63;6278635;20;2862875;-60
2023/05/17 01:18:45;;;;;;;;;32.00;27.67;;;;;14.69;100.00;98801.63;6313505;20;3600276;-61
2023/05/17 01:21:40;;;;;;;;;33.67;28.33;;;;;14.71;100.00;98802.31;6276135;20;3603437;-61
2023/05/17 01:24:26;;;;;;;;;27.67;25.33;;;;;14.75;100.00;98808.31;6318059;20;3576326;-61
2023/05/17 01:26:58;;;;;;;;;31.67;25.00;;;;;14.55;100.00;98802.03;6277614;20;3608638;-61
2023/05/17 01:29:28;;;;;;;;;33.00;28.00;;;;;14.68;100.00;98807.16;6314763;20;3601428;-61
2023/05/17 01:31:58;;;;;;;;;27.33;26.00;;;;;14.66;100.00;98793.78;6282442;20;3578465;-62
2023/05/17 01:34:28;;;;;;;;;31.00;24.00;;;;;14.53;100.00;98787.81;6280369;20;3623363;-61
2023/05/17 01:36:57;;;;;;;;;26.33;23.67;;;;;14.63;100.00;98795.94;6312305;20;3608725;-61
2023/05/17 01:39:26;;;;;;;;;29.33;25.33;;;;;14.63;100.00;98794.06;6282829;20;2847152;-61
2023/05/17 01:42:35;;;;;;;;;33.67;24.67;;;;;14.68;100.00;98791.78;6312852;20;3605497;-61
2023/05/17 01:45:19;;;;;;;;;28.67;25.67;;;;;14.67;100.00;98791.97;6277207;20;2849305;-61
2023/05/17 01:48:05;;;;;;;;;27.50;22.00;;;;;14.75;100.00;98791.25;6311601;20;2843994;-61
2023/05/17 01:50:36;;;;;;;;;24.50;24.50;;;;;14.92;100.00;98782.38;6281547;20;2840892;-61
2023/05/17 01:53:10;;;;;;;;;26.00;24.00;;;;;14.99;100.00;98788.94;6278923;20;2842030;-61
2023/05/17 01:55:50;;;;;;;;;31.33;23.00;;;;;15.03;100.00;98794.91;6281138;20;2858802;-61
2023/05/17 01:58:21;;;;;;;;;25.67;22.00;;;;;14.89;100.00;98791.63;6314069;20;3576723;-61
2023/05/17 02:00:55;;;;;;;;;33.67;27.33;;;;;14.98;100.00;98789.06;6279135;20;3621153;-61
2023/05/17 02:03:24;;;;;;;;;29.00;25.00;;;;;15.00;100.00;98795.19;6307968;20;3588866;-62
2023/05/17 02:05:53;;;;;;;;;30.67;25.67;;;;;14.95;100.00;98792.91;6278009;20;3602404;-61
2023/05/17 02:08:21;;;;;;;;;26.67;24.67;;;;;14.98;100.00;98798.06;6315832;20;3571198;-61
2023/05/17 02:10:50;;;;;;;;;35.00;27.67;;;;;14.88;100.00;98787.25;6280230;20;3612756;-60
2023/05/17 02:13:18;;;;;;;;;31.67;25.33;;;;;14.97;100.00;98790.91;6312632;20;3598184;-62
2023/05/17 02:15:47;;;;;;;;;27.00;22.67;;;;;15.05;100.00;98792.91;6279474;20;2843664;-61
2023/05/17 02:18:16;;;;;;;;;31.33;24.00;;;;;14.95;100.00;98790.22;6310993;20;3601419;-61
2023/05/17 02:20:44;;;;;;;;;25.67;22.00;;;;;15.06;100.00;98800.00;6279568;20;3577387;-62
2023/05/17 02:23:13;;;;;;;;;27.67;24.67;;;;;14.88;100.00;98789.09;6279609;20;2851513;-62
2023/05/17 02:25:41;;;;;;;;;24.00;19.00;;;;;14.80;100.00;98800.63;6314395;20;3582050;-62
2023/05/17 02:28:10;;;;;;;;;33.00;24.33;;;;;14.76;100.00;98806.44;6279454;20;3598192;-61
2023/05/17 02:30:41;;;;;;;;;26.33;24.67;;;;;14.73;100.00;98798.63;6283949;20;3595144;-61
2023/05/17 02:33:10;;;;;;;;;23.00;22.00;;;;;14.69;100.00;98807.03;6280572;20;2846191;-61
2023/05/17 02:35:38;;;;;;;;;24.00;22.67;;;;;14.74;100.00;98800.31;6312516;20;3574268;-62
2023/05/17 02:38:06;;;;;;;;;25.00;25.00;;;;;14.88;100.00;98805.31;6280490;20;3581576;-61
2023/05/17 02:40:35;;;;;;;;;28.33;27.00;;;;;14.86;100.00;98810.00;6276535;20;2846319;-61
2023/05/17 02:43:05;;;;;;;;;34.33;28.33;;;;;14.86;100.00;98802.75;6308452;20;3618035;-62
2023/05/17 02:45:33;;;;;;;;;19.67;18.33;;;;;14.88;100.00;98797.22;6315549;20;3569057;-62
2023/05/17 02:48:02;;;;;;;;;30.00;25.33;;;;;14.77;100.00;98800.03;6278652;20;2843049;-61
2023/05/17 02:50:30;;;;;;;;;26.67;23.00;;;;;14.50;100.00;98798.88;6315838;20;3576307;-62
2023/05/17 02:52:59;;;;;;;;;28.33;25.67;;;;;14.53;100.00;98811.28;6278363;20;2854458;-61
2023/05/17 02:55:28;;;;;;;;;25.33;25.33;;;;;14.55;100.00;98812.00;6311247;20;3587838;-61
2023/05/17 02:57:56;;;;;;;;;35.33;28.00;;;;;14.53;100.00;98820.22;6282559;20;3622207;-62
2023/05/17 03:00:25;;;;;;;;;30.00;22.67;;;;;14.40;100.00;98820.50;6279535;20;2865996;-62
2023/05/17 03:02:54;;;;;;;;;31.67;27.67;;;;;14.42;100.00;98833.84;6314642;20;3600385;-62
2023/05/17 03:05:22;;;;;;;;;29.00;24.00;;;;;14.45;100.00;98825.44;6281371;20;3588831;-61
2023/05/17 03:07:51;;;;;;;;;26.50;26.50;;;;;14.51;100.00;98819.50;6280742;20;2841002;-61
2023/05/17 03:10:20;;;;;;;;;28.67;26.00;;;;;14.52;100.00;98820.34;6278327;20;3598267;-61
2023/05/17 03:12:48;;;;;;;;;28.00;26.33;;;;;14.45;100.00;98822.75;6314235;20;3601300;-61
2023/05/17 03:15:17;;;;;;;;;32.00;24.33;;;;;14.60;100.00;98826.78;6280966;20;3620012;-62
2023/05/17 03:17:46;;;;;;;;;27.00;25.33;;;;;14.57;100.00;98831.63;6309573;20;3585680;-61
2023/05/17 03:20:15;;;;;;;;;27.67;25.00;;;;;14.55;100.00;98829.03;6312743;20;3585720;-62
2023/05/17 03:22:44;;;;;;;;;26.00;24.33;;;;;14.61;100.00;98823.09;6278754;20;2846201;-62
2023/05/17 03:25:12;;;;;;;;;30.67;26.33;;;;;14.79;100.00;98819.66;6310453;20;3601327;-62
2023/05/17 03:27:40;;;;;;;;;30.00;26.00;;;;;14.88;100.00;98829.63;6281810;20;3607614;-62
2023/05/17 03:30:09;;;;;;;;;25.00;23.67;;;;;14.88;100.00;98827.78;6278895;20;3582045;-61
2023/05/17 03:32:39;;;;;;;;;26.50;23.50;;;;;14.76;100.00;98825.38;6274235;20;2835806;-61
2023/05/17 03:35:08;;;;;;;;;26.50;23.50;;;;;14.66;100.00;98831.59;6258245;20;2840093;-61
2023/05/17 03:37:37;;;;;;;;;27.33;22.67;;;;;14.58;100.00;98833.31;6278471;20;2841099;-61
2023/05/17 03:40:07;;;;;;;;;30.33;27.67;;;;;14.53;100.00;98841.00;6301674;20;3604558;-61
2023/05/17 03:42:35;;;;;;;;;27.00;24.33;;;;;14.70;100.00;98849.25;6309770;20;3591941;-62
2023/05/17 03:45:05;;;;;;;;;30.67;22.00;;;;;14.68;100.00;98851.25;6280526;20;3599394;-62
2023/05/17 03:47:34;;;;;;;;;24.67;19.00;;;;;14.48;100.00;98849.47;6313357;20;3577482;-61
2023/05/17 03:50:02;;;;;;;;;25.33;22.00;;;;;14.43;100.00;98851.78;6279780;20;3585821;-62
2023/05/17 03:52:31;;;;;;;;;24.33;19.67;;;;;14.50;100.00;98863.69;6280083;20;2845116;-62
2023/05/17 03:54:59;;;;;;;;;18.00;18.00;;;;;14.49;100.00;98862.84;6310279;20;2725406;-61
2023/05/17 03:57:27;;;;;;;;;28.00;24.33;;;;;14.72;100.00;98862.63;6312218;20;3583636;-61
2023/05/17 03:59:56;;;;;;;;;24.00;23.50;;;;;14.64;100.00;98866.03;6278931;20;2821224;-61
2023/05/17 04:02:24;;;;;;;;;22.00;20.00;;;;;14.58;100.00;98865.72;6278403;20;2839895;-62
2023/05/17 04:04:53;;;;;;;;;27.67;25.33;;;;;14.63;100.00;98861.63;6279785;20;2860889;-62
2023/05/17 04:07:21;;;;;;;;;26.67;24.33;;;;;14.78;100.00;98863.91;6306370;20;3578388;-62
2023/05/17 04:09:50;;;;;;;;;23.50;21.00;;;;;14.75;100.00;98861.50;6277180;20;2827363;-60
2023/05/17 04:12:19;;;;;;;;;27.33;22.00;;;;;14.90;100.00;98870.88;6280787;20;3584667;-61
2023/05/17 04:14:47;;;;;;;;;25.00;22.00;;;;;14.83;100.00;98891.38;6281466;20;2834614;-62
2023/05/17 04:17:15;;;;;;;;;26.00;21.67;;;;;14.91;100.00;98888.81;6285040;20;3575692;-61
2023/05/17 04:19:43;;;;;;;;;25.50;21.50;;;;;14.89;100.00;98885.38;6279609;20;2852437;-61
2023/05/17 04:22:12;;;;;;;;;25.00;21.00;;;;;14.89;100.00;98890.78;6284086;20;3580497;-61
2023/05/17 04:24:40;;;;;;;;;21.67;20.33;;;;;14.81;100.00;98887.94;6282268;20;3580458;-61
2023/05/17 04:27:10;;;;;;;;;25.67;21.67;;;;;14.91;100.00;98899.63;6279664;20;2845237;-61
2023/05/17 04:29:39;;;;;;;;;23.33;22.33;;;;;15.05;100.00;98891.06;6317122;20;3575231;-61
2023/05/17 04:32:08;;;;;;;;;25.67;24.33;;;;;15.00;100.00;98903.31;6283097;20;3581687;-61
2023/05/17 04:34:36;;;;;;;;;35.00;22.67;;;;;15.01;100.00;98903.19;6285658;20;3605584;-61
2023/05/17 04:37:06;;;;;;;;;25.33;24.00;;;;;15.19;100.00;98918.69;6280366;20;2852419;-61
2023/05/17 04:39:34;;;;;;;;;28.00;26.33;;;;;15.17;100.00;98918.00;6314970;20;3597908;-62
2023/05/17 04:42:03;;;;;;;;;27.00;25.67;;;;;15.20;100.00;98915.84;6285890;20;3593134;-61
2023/05/17 04:44:32;;;;;;;;;27.33;25.00;;;;;15.29;100.00;98919.53;6281921;20;3600264;-61
2023/05/17 04:47:01;;;;;;;;;31.67;26.67;;;;;15.22;100.00;98923.81;6317752;20;3610687;-61
2023/05/17 04:49:30;;;;;;;;;27.00;24.67;;;;;15.36;100.00;98924.22;6284406;20;3579454;-61
2023/05/17 04:51:58;;;;;;;;;27.00;22.67;;;;;15.27;100.00;98924.22;6316395;20;3580482;-61
2023/05/17 04:54:27;;;;;;;;;26.33;23.67;;;;;15.28;100.00;98917.84;6283001;20;2850357;-61
2023/05/17 04:56:55;;;;;;;;;28.67;24.67;;;;;15.28;100.00;98910.56;6314874;20;3593069;-61
2023/05/17 04:59:23;;;;;;;;;32.33;28.33;;;;;15.24;100.00;98911.00;6286686;20;3587866;-61
2023/05/17 05:01:52;;;;;;;;;29.00;26.00;;;;;15.31;100.00;98917.53;6283487;20;3596220;-61
2023/05/17 05:04:22;;;;;;;;;29.67;24.33;;;;;15.33;100.00;98915.56;6313805;20;3596112;-61
2023/05/17 05:06:51;;;;;;;;;32.67;30.00;;;;;15.27;100.00;98922.41;6282604;20;3601350;-60
2023/05/17 05:09:19;;;;;;;;;25.33;24.67;;;;;15.48;100.00;98934.88;6284869;20;3593065;-61
2023/05/17 05:11:48;;;;;;;;;30.33;28.00;;;;;15.58;100.00;98944.69;6284135;20;3600274;-61
2023/05/17 05:14:17;;;;;;;;;34.25;30.50;;;;;15.49;100.00;98948.28;6314137;20;3610664;-61
2023/05/17 05:16:45;;;;;;;;;28.67;27.00;;;;;15.33;100.00;98948.88;6313842;20;3592078;-61
2023/05/17 05:19:15;;;;;;;;;31.33;26.00;;;;;15.46;100.00;98940.47;6282426;20;3599312;-61
2023/05/17 05:21:45;;;;;;;;;26.33;26.33;;;;;15.70;100.00;98944.59;6315001;20;3590943;-62
2023/05/17 05:24:13;;;;;;;;;30.00;28.00;;;;;15.69;100.00;98950.97;6285960;20;3591973;-61
2023/05/17 05:26:43;;;;;;;;;35.00;29.75;;;;;15.79;100.00;98946.41;6277836;20;3613793;-61
2023/05/17 05:29:12;;;;;;;;;38.00;31.00;;;;;15.65;100.00;98944.13;6314952;20;3607560;-61
2023/05/17 05:31:40;;;;;;;;;32.00;28.33;;;;;15.73;100.00;98949.72;6316720;20;3598183;-61
2023/05/17 05:34:09;;;;;;;;;33.67;30.33;;;;;15.77;100.00;98949.28;6283609;20;3609651;-61
2023/05/17 05:36:38;;;;;;;;;31.67;27.33;;;;;15.77;100.00;98957.41;6314512;20;3606511;-61
2023/05/17 05:39:07;;;;;;;;;30.00;28.67;;;;;15.63;100.00;98960.50;6282944;20;3577365;-61
2023/05/17 05:41:36;;;;;;;;;29.67;28.33;;;;;15.86;100.00;98966.50;6283156;20;3593108;-61
2023/05/17 05:44:04;;;;;;;;;29.33;24.67;;;;;15.82;100.00;98962.34;6286301;20;3598246;-61
2023/05/17 05:46:33;;;;;;;;;32.33;30.00;;;;;15.80;100.00;98975.22;6282527;20;3611861;-61
2023/05/17 05:49:01;;;;;;;;;33.33;25.67;;;;;15.91;100.00;98968.78;6319717;20;3601750;-60
2023/05/17 05:51:31;;;;;;;;;33.25;26.50;;;;;15.87;100.00;98973.59;6286310;20;3613990;-61
2023/05/17 05:53:59;;;;;;;;;33.67;29.33;;;;;15.88;100.00;98975.31;6317565;20;3610694;-61
2023/05/17 05:56:27;;;;;;;;;28.67;27.33;;;;;15.93;100.00;98989.28;6282928;20;3574229;-60
2023/05/17 05:58:57;;;;;;;;;32.67;29.67;;;;;15.94;100.00;98990.97;6280779;20;3611824;-61
2023/05/17 06:01:26;;;;;;;;;31.67;27.00;;;;;15.87;100.00;98991.69;6316301;20;3594071;-61
2023/05/17 06:03:54;;;;;;;;;28.33;25.33;;;;;15.81;100.00;98987.72;6283678;20;3578444;-61
2023/05/17 06:06:23;;;;;;;;;26.00;26.00;;;;;16.11;100.00;98992.06;6285343;20;3592993;-61
2023/05/17 06:08:51;;;;;;;;;27.67;27.00;;;;;16.28;100.00;98993.16;6286505;20;3602353;-61
2023/05/17 06:11:20;;;;;;;;;28.00;26.67;;;;;16.02;100.00;98993.81;6286694;20;3588808;-62
2023/05/17 06:13:48;;;;;;;;;29.67;27.33;;;;;15.95;100.00;98992.69;6287956;20;3592015;-61
2023/05/17 06:16:16;;;;;;;;;32.33;30.33;;;;;16.13;100.00;99002.75;6285773;20;3601324;-61
2023/05/17 06:18:45;;;;;;;;;35.67;29.33;;;;;16.16;100.00;99011.44;6284168;20;3620177;-61
2023/05/17 06:21:17;;;;;;;;;35.00;28.67;;;;;16.13;100.00;99010.88;6285758;20;3588813;-61
2023/05/17 06:23:46;;;;;;;;;33.00;29.33;;;;;16.01;100.00;99013.78;6283288;20;3597252;-61
2023/05/17 06:26:14;;;;;;;;;30.33;27.00;;;;;16.04;100.00;99012.63;6285053;20;3582667;-61
2023/05/17 06:28:42;;;;;;;;;29.00;29.00;;;;;16.06;100.00;99007.03;6287464;20;3602368;-62
2023/05/17 06:31:10;;;;;;;;;38.33;33.33;;;;;16.06;100.00;99016.06;6284155;20;3606739;-61
2023/05/17 06:33:38;;;;;;;;;32.00;30.67;;;;;16.16;100.00;99013.28;6283734;20;3590979;-61
2023/05/17 06:36:07;;;;;;;;;54.33;43.67;;;;;16.10;100.00;99016.59;6282098;20;3603519;-62
2023/05/17 06:38:35;;;;;;;;;43.33;35.00;;;;;16.12;100.00;99026.28;6285773;20;3593053;-62
2023/05/17 06:41:04;;;;;;;;;31.67;30.67;;;;;16.09;100.00;99014.88;6284473;20;3587991;-62
2023/05/17 06:43:32;;;;;;;;;37.33;33.67;;;;;15.97;100.00;99023.19;6285783;20;3590945;-61
2023/05/17 06:46:04;;;;;;;;;46.67;32.33;;;;;16.01;100.00;99019.19;6281391;20;3616164;-61
2023/05/17 06:48:33;;;;;;;;;36.00;32.00;;;;;16.17;100.00;99015.88;6311039;20;3585773;-61
2023/05/17 06:51:01;;;;;;;;;37.33;33.00;;;;;16.37;100.00;99019.34;6281475;20;3586769;-61
2023/05/17 06:53:29;;;;;;;;;41.67;33.00;;;;;16.48;100.00;99021.03;6280514;20;3589851;-62
2023/05/17 06:55:58;;;;;;;;;38.00;32.67;;;;;16.57;100.00;99013.88;6279119;20;3601402;-60
2023/05/17 06:58:26;;;;;;;;;34.00;32.00;;;;;16.55;100.00;99015.88;6287459;20;3584749;-61
2023/05/17 07:00:54;;;;;;;;;38.33;31.00;;;;;16.57;100.00;99013.88;6285070;20;3587816;-61
2023/05/17 07:03:22;;;;;;;;;39.67;33.67;;;;;16.53;100.00;99023.31;6283799;20;3602381;-62
2023/05/17 07:05:51;;;;;;;;;45.00;35.33;;;;;16.71;100.00;99015.25;6282971;20;3608726;-61
2023/05/17 07:08:19;;;;;;;;;38.67;33.00;;;;;16.74;100.00;99023.91;6283843;20;3588799;-61
2023/05/17 07:10:51;;;;;;;;;38.67;33.00;;;;;16.75;100.00;99028.34;6282224;20;3590045;-62
2023/05/17 07:13:19;;;;;;;;;41.33;33.67;;;;;16.40;100.00;99023.63;6284218;20;3591951;-61
2023/05/17 07:15:48;;;;;;;;;38.67;33.00;;;;;16.41;100.00;99031.63;6275379;20;2853409;-61
2023/05/17 07:18:16;;;;;;;;;43.67;34.67;;;;;16.53;100.00;99034.13;6313281;20;3600462;-61
2023/05/17 07:20:46;;;;;;;;;44.67;36.00;;;;;16.53;100.00;99042.28;6280547;20;3605535;-61
2023/05/17 07:23:14;;;;;;;;;41.33;33.67;;;;;16.64;100.00;99040.25;6312332;20;3591988;-61
2023/05/17 07:25:43;;;;;;;;;40.67;34.00;;;;;16.70;100.00;99036.06;6281018;20;3584659;-61
2023/05/17 07:28:11;;;;;;;;;38.33;33.00;;;;;16.59;100.00;99037.13;6282946;20;3583590;-61
2023/05/17 07:30:39;;;;;;;;;49.50;36.00;;;;;16.38;100.00;99045.47;6284117;20;3497234;-61
2023/05/17 07:33:08;;;;;;;;;39.00;34.33;;;;;16.46;100.00;99045.59;6313909;20;3584649;-61
2023/05/17 07:35:37;;;;;;;;;38.00;33.33;;;;;16.31;100.00;99041.63;6278445;20;3584651;-61
2023/05/17 07:38:09;;;;;;;;;43.33;35.00;;;;;16.29;100.00;99038.22;6309906;20;3589971;-61
2023/05/17 07:40:37;;;;;;;;;43.33;37.00;;;;;16.41;100.00;99031.63;6281044;20;3603384;-61
2023/05/17 07:43:06;;;;;;;;;43.67;37.00;;;;;16.34;100.00;99049.47;6279595;20;3588963;-61
2023/05/17 07:45:35;;;;;;;;;42.33;35.33;;;;;16.39;100.00;99049.03;6280645;20;2856797;-61
2023/05/17 07:48:03;;;;;;;;;47.33;38.00;;;;;16.62;100.00;99047.66;6316067;20;3595168;-61
2023/05/17 07:50:32;;;;;;;;;45.67;37.00;;;;;16.66;100.00;99053.63;6285015;20;3598173;-61
2023/05/17 07:53:00;;;;;;;;;45.67;38.33;;;;;16.91;100.00;99064.84;6316080;20;3583610;-61
2023/05/17 07:55:29;;;;;;;;;42.33;35.67;;;;;16.86;100.00;99060.72;6284884;20;3604426;-61
2023/05/17 07:57:58;;;;;;;;;47.00;39.00;;;;;16.81;100.00;99056.75;6319179;20;3592331;-60
2023/05/17 08:00:26;;;;;;;;;42.00;35.67;;;;;16.76;100.00;99057.16;6289265;20;3601351;-60
2023/05/17 08:02:56;;;;;;;;;50.00;38.33;;;;;16.98;100.00;99065.94;6280021;20;3599254;-60
2023/05/17 08:05:24;;;;;;;;;47.67;39.33;;;;;16.63;100.00;99068.34;6312496;20;3607688;-60
2023/05/17 08:07:53;;;;;;;;;43.00;36.33;;;;;16.60;100.00;99073.22;6283847;20;3576419;-61
2023/05/17 08:10:22;;;;;;;;;49.00;40.00;;;;;16.76;100.00;99069.88;6281657;20;3612824;-60
2023/05/17 08:12:50;;;;;;;;;46.00;37.33;;;;;16.66;100.00;99078.88;6318363;20;3588859;-61
2023/05/17 08:15:19;;;;;;;;;48.00;40.00;;;;;16.71;100.00;99072.16;6281604;20;3605602;-61
2023/05/17 08:17:47;;;;;;;;;45.67;38.67;;;;;16.53;100.00;99085.63;6320073;20;3591957;-61
2023/05/17 08:20:16;;;;;;;;;43.67;35.00;;;;;16.48;100.00;99077.09;6285006;20;3598288;-61
2023/05/17 08:22:48;;;;;;;;;43.33;36.00;;;;;16.55;100.00;99075.50;6283342;20;2843086;-61
2023/05/17 08:25:16;;;;;;;;;42.00;36.00;;;;;16.50;100.00;99083.22;6315922;20;3574358;-60
2023/05/17 08:27:44;;;;;;;;;47.00;39.00;;;;;16.72;100.00;99074.75;6284620;20;3607702;-60
2023/05/17 08:30:13;;;;;;;;;44.67;37.67;;;;;16.73;100.00;99073.72;6285191;20;3577370;-60
2023/05/17 08:32:55;;;;;;;;;49.67;38.33;;;;;16.79;100.00;99065.03;6283225;20;3602753;-60
2023/05/17 08:35:25;;;;;;;;;46.33;38.33;;;;;16.71;100.00;99064.88;6285212;20;3609732;-61
2023/05/17 08:37:56;;;;;;;;;46.00;37.67;;;;;17.03;100.00;99069.03;6316215;20;3595193;-61
2023/05/17 08:40:24;;;;;;;;;47.00;38.67;;;;;17.00;100.00;99072.06;6286833;20;3595161;-61
2023/05/17 08:42:53;;;;;;;;;46.67;38.00;;;;;17.19;100.00;99069.22;6286794;20;3599316;-61
2023/05/17 08:45:21;;;;;;;;;46.33;35.67;;;;;17.35;100.00;99057.72;6284493;20;3599265;-61
2023/05/17 08:47:53;;;;;;;;;47.00;39.00;;;;;17.66;100.00;99069.06;6282546;20;3599227;-61
2023/05/17 08:50:22;;;;;;;;;45.67;35.00;;;;;17.57;100.00;99075.44;6314966;20;3604420;-61
2023/05/17 08:52:51;;;;;;;;;43.67;36.00;;;;;18.06;100.00;99081.34;6283198;20;3590901;-61
2023/05/17 08:55:20;;;;;;;;;43.67;37.00;;;;;18.05;100.00;99076.91;6280469;20;3587858;-60
2023/05/17 08:57:49;;;;;;;;;45.33;38.67;;;;;18.07;100.00;99074.91;6316813;20;3569007;-61
2023/05/17 09:00:21;;;;;;;;;41.33;35.00;;;;;18.02;100.00;99077.22;6286744;20;3590923;-62
2023/05/17 09:02:50;;;;;;;;;44.67;35.00;;;;;18.02;100.00;99073.66;6281103;20;3605483;-60
2023/05/17 09:05:19;;;;;;;;;46.00;37.33;;;;;18.09;100.00;99072.00;6315554;20;3595177;-60
2023/05/17 09:07:48;;;;;;;;;46.33;37.33;;;;;18.18;100.00;99071.91;6288468;20;3586745;-61
2023/05/17 09:10:16;;;;;;;;;44.33;35.00;;;;;18.05;100.00;99071.47;6289414;20;3586791;-61
2023/05/17 09:12:45;;;;;;;;;39.00;35.00;;;;;18.39;100.00;99073.44;6286431;20;2841052;-61
2023/05/17 09:15:17;;;;;;;;;43.33;36.00;;;;;18.16;100.00;99079.38;6313879;20;3592143;-60
2023/05/17 09:17:55;;;;;;;;;49.67;40.67;;;;;18.47;100.00;99078.91;6287801;20;3620121;-61
2023/05/17 09:20:33;;;;;;;;;44.33;38.00;;;;;19.19;100.00;99081.34;6285515;20;3586741;-60
2023/05/17 09:23:06;;;;;;;;;38.33;34.67;;;;;19.52;100.00;99079.59;6285445;20;3580575;-61
2023/05/17 09:25:35;;;;;;;;;43.67;35.33;;;;;19.11;100.00;99082.16;6275620;20;3571070;-60
2023/05/17 09:28:10;;;;;;;;;38.67;34.00;;;;;18.97;100.00;99083.66;6283966;20;3584660;-61
2023/05/17 09:30:40;;;;;;;;;44.33;36.00;;;;;19.20;100.00;99088.53;6283396;20;2853519;-61
2023/05/17 09:33:10;;;;;;;;;35.67;32.00;;;;;18.99;100.00;99092.50;6311411;20;3596339;-61
2023/05/17 09:35:42;;;;;;;;;45.00;36.00;;;;;18.88;100.00;99095.53;6278088;20;3596105;-61
2023/05/17 09:38:12;;;;;;;;;40.67;35.00;;;;;19.04;100.00;99097.47;6311849;20;3592026;-61
2023/05/17 09:40:43;;;;;;;;;47.00;38.00;;;;;19.04;100.00;99103.75;6283428;20;3604524;-61
2023/05/17 09:43:13;;;;;;;;;46.33;37.00;;;;;18.86;100.00;99092.94;6280147;20;3585916;-61
2023/05/17 09:45:41;;;;;;;;;45.33;38.00;;;;;18.81;100.00;99102.63;6278800;20;3592032;-61
2023/05/17 09:48:18;;;;;;;;;45.33;38.33;;;;;18.81;100.00;99099.91;6282826;20;3593003;-62
2023/05/17 09:50:51;;;;;;;;;42.33;37.33;;;;;18.83;100.00;99103.31;6283251;20;2846180;-61
2023/05/17 09:53:27;;;;;;;;;44.33;36.67;;;;;18.92;100.00;99099.59;6314127;20;3586838;-61
2023/05/17 09:55:59;;;;;;;;;46.67;38.33;;;;;19.23;100.00;99102.63;6284104;20;3600401;-61
2023/05/17 09:58:27;;;;;;;;;45.67;37.67;;;;;19.08;100.00;99105.13;6284277;20;3594040;-61
2023/05/17 10:01:07;;;;;;;;;41.33;36.33;;;;;19.14;100.00;99100.91;6282981;20;3587785;-61
2023/05/17 10:03:37;;;;;;;;;44.00;36.33;;;;;19.26;100.00;99107.75;6287434;20;3585794;-61
2023/05/17 10:06:07;;;;;;;;;39.67;35.67;;;;;19.11;100.00;99100.38;6280214;20;3581546;-61
2023/05/17 10:08:46;;;;;;;;;46.67;40.00;;;;;19.25;100.00;99097.88;6287528;20;3581532;-61
2023/05/17 10:11:15;;;;;;;;;43.00;37.33;;;;;19.57;100.00;99109.06;6283924;20;3586749;-61
2023/05/17 10:13:51;;;;;;;;;43.67;37.67;;;;;19.52;100.00;99110.38;6283345;20;3603384;-62
2023/05/17 10:16:23;;;;;;;;;40.67;35.00;;;;;19.39;100.00;99118.19;6281957;20;3571101;-62
2023/05/17 10:18:53;;;;;;;;;47.00;39.00;;;;;19.44;100.00;99115.81;6285113;20;3575363;-61
2023/05/17 10:21:21;;;;;;;;;45.00;39.00;;;;;19.72;100.00;99111.00;6284389;20;3599222;-61
2023/05/17 10:23:50;;;;;;;;;45.00;39.00;;;;;19.72;100.00;99116.44;6282902;20;3588906;-61
2023/05/17 10:26:19;;;;;;;;;44.33;36.00;;;;;19.86;100.00;99125.81;6276386;20;3589227;-61
2023/05/17 10:28:52;;;;;;;;;44.67;37.33;;;;;19.91;100.00;99120.72;6287767;20;3592977;-61
2023/05/17 10:31:21;;;;;;;;;43.67;37.00;;;;;19.91;100.00;99118.00;6317032;20;3593029;-62
2023/05/17 10:33:50;;;;;;;;;45.00;37.00;;;;;19.81;100.00;99116.44;6281452;20;3595144;-62
2023/05/17 10:36:20;;;;;;;;;47.67;38.67;;;;;20.18;100.00;99121.44;6276783;20;3600291;-61
2023/05/17 10:38:50;;;;;;;;;45.00;36.67;;;;;20.11;100.00;99117.66;6268215;20;3589881;-61
2023/05/17 10:41:23;;;;;;;;;43.00;37.67;;;;;20.31;99.25;99132.66;6274831;20;3585704;-62
2023/05/17 10:43:53;;;;;;;;;45.67;36.67;;;;;20.68;96.66;99119.56;6281512;20;3609629;-62
2023/05/17 10:46:22;;;;;;;;;42.67;37.67;;;;;20.52;97.25;99115.78;6279000;20;3582632;-63
2023/05/17 10:48:53;;;;;;;;;40.67;35.00;;;;;20.77;96.28;99118.50;6281556;20;3591963;-61
2023/05/17 10:51:24;;;;;;;;;45.00;36.00;;;;;20.43;94.73;99126.88;6281698;20;3587788;-62
2023/05/17 10:54:01;;;;;;;;;46.67;39.33;;;;;20.63;96.40;99120.06;6280554;20;3602520;-63
2023/05/17 10:56:31;;;;;;;;;38.67;34.67;;;;;20.30;95.28;99124.66;6279421;20;3589971;-63
2023/05/17 10:59:21;;;;;;;;;43.00;36.00;;;;;20.62;94.91;99123.81;6279494;20;3588788;-63
2023/05/17 11:01:56;;;;;;;;;43.33;35.67;;;;;20.78;95.51;99123.78;6273934;20;3600295;-61
2023/05/17 11:04:37;;;;;;;;;36.33;33.00;;;;;20.96;93.21;99130.91;6285379;20;3598559;-61
2023/05/17 11:07:17;;;;;;;;;45.67;38.00;;;;;21.24;94.34;99134.03;6281734;20;3603844;-62